Del Norte, CO

11:12 PM MDT on September 14, 2014 (GMT -0600)
North West of | Change Station
CLOSE
Current Station
Personal Weather Station
Location: MONTE VISTA, CO
Elevation: 7720 ft
Nearby Weather Stations

Elev 7720 ft 37.65 °N, 106.18 °W | Updated 9 seconds ago

Partly Cloudy
Partly Cloudy
57.9 °F
Feels Like 57.9 °F
N
7.0
Wind Variable Wind from WNW
Gusts 14.0 mph

Today
High -- | Low -- °F
--% Chance of Precip.
Yesterday
High -- | Low -- °F
Precip. -- in
6:46 AM 7:14 PM
Waning Gibbous, 59% visible
Pressure 30.02 in
Visibility 10.0 miles
Clouds Overcast 10000 ft
Dew Point 43 °F
Humidity 57%
Rainfall 0.01 in
Snow Depth 0 in , 1 in , 0 in
UV 0 out of 12
Pollen 5.80 out of 12
Air Quality Not available.
Flu Activity Not available.
METAR KALS 150452Z AUTO 19004KT 10SM OVC100 15/05 A3029 RMK AO2 SLP164 T01500050

More Conditions Fewer Conditions

Pressure 30.02 in
Visibility 10.0 miles
Clouds Overcast 10000 ft
Dew Point 43 °F
Humidity 57%
Rainfall 0.01 in
Snow Depth 0 in , 1 in , 0 in
UV 0 out of 12
Pollen 5.80 out of 12
Air Quality Not available.
Flu Activity Not available.
METAR KALS 150452Z AUTO 19004KT 10SM OVC100 15/05 A3029 RMK AO2 SLP164 T01500050

More Conditions Fewer Conditions

10-Day Weather Forecast

Almanac

Astronomy

Sep. 14, 2014 Rise Set
Actual Time 6:46 AM MDT 7:14 PM MDT
Civil Twilight 6:20 AM MDT 7:41 PM MDT
Nautical Twilight 5:49 AM MDT 8:11 PM MDT
Astronomical Twilight 5:17 AM MDT 8:43 PM MDT
Moon 11:16 PM MDT (9/14) 12:48 PM MDT (9/14)
Length of Visible Light 13h 20m
Length of Day
12h 28m
Tomorrow will be 2m 23s shorter.
Waning Gibbous, 59% of the Moon is Illuminated
Sep 15
Waning Gibbous
Sep 15
Last Quarter
Sep 24
New
Oct 1
First Quarter
Oct 8
Full

Yesterday's Extremes

State Highs State Lows

Community

WunderPhotos

Upload Photos

1,753,411 photos uploaded!

Nearby

Snow Depth

Station Depth Elevation
Medano Pass 0 in 9620 ft
Ivanhoe 1 in 10400 ft
Bear RIver 0 in 9080 ft
Niwot 0 in 9910 ft
Lone Cone 9 in 9600 ft

Earthquake Activity

City Distance Mag. Time & Date
No recent earthquake activity has been reported nearby.
Minimum magnitude displayed is 2.5.

Coastal Water Temperatures

Place Temperature
No Stations Reporting

Nearby Weather Stations